Time;durP1;ratioP1;P1;durP2;ratioP2;P2;SDS_P1;SDS_P2;PMS_P1;PMS_P2;Temp;Humidity;BMP_temperature;BMP_pressure;BME280_temperature;BME280_humidity;BME280_pressure;Samples;Min_cycle;Max_cycle;Signal;HPM_P1;HPM_P2
2022/07/01 00:01:47;;;;;;;4.57;3.33;;;;;;;26.95;47.35;100632.25;5036243;28;20045;-78
2022/07/01 00:04:15;;;;;;;6.55;3.70;;;;;;;26.95;47.32;100629.53;5036055;28;20053;-78
2022/07/01 00:06:42;;;;;;;4.28;3.50;;;;;;;26.96;47.57;100633.91;5034618;28;20041;-78
2022/07/01 00:09:10;;;;;;;4.18;3.50;;;;;;;26.97;47.43;100630.16;5035650;28;20045;-78
2022/07/01 00:11:38;;;;;;;5.50;2.80;;;;;;;26.97;47.32;100623.88;5034559;28;20041;-77
2022/07/01 00:14:05;;;;;;;4.35;3.17;;;;;;;26.98;47.33;100620.13;5035714;28;20048;-78
2022/07/01 00:16:32;;;;;;;5.65;4.00;;;;;;;26.98;47.51;100618.28;5035890;28;20042;-78
2022/07/01 00:19:00;;;;;;;6.35;3.67;;;;;;;26.98;47.53;100614.69;5035713;28;20056;-77
2022/07/01 00:21:28;;;;;;;5.80;2.97;;;;;;;26.99;47.60;100621.84;5036284;28;20045;-77
2022/07/01 00:23:55;;;;;;;3.63;2.97;;;;;;;26.99;47.29;100628.13;5035993;28;20048;-77
2022/07/01 00:26:23;;;;;;;5.70;3.63;;;;;;;26.99;47.42;100628.13;5035142;28;20057;-77
2022/07/01 00:28:51;;;;;;;6.57;2.90;;;;;;;27.00;47.45;100639.81;5035561;28;20052;-77
2022/07/01 00:31:18;;;;;;;5.97;3.33;;;;;;;26.99;47.26;100638.97;5034557;28;20052;-77
2022/07/01 00:33:45;;;;;;;4.07;3.03;;;;;;;27.00;47.35;100637.94;5036056;28;20037;-77
2022/07/01 00:36:13;;;;;;;5.32;3.33;;;;;;;27.01;47.57;100636.91;5034273;28;20489;-76
2022/07/01 00:38:40;;;;;;;4.10;2.88;;;;;;;27.01;47.74;100636.91;5035702;28;20053;-76
2022/07/01 00:41:08;;;;;;;4.03;3.35;;;;;;;27.03;47.19;100634.03;5033811;28;20045;-76
2022/07/01 00:43:38;;;;;;;5.03;3.13;;;;;;;27.02;47.51;100637.75;5035497;28;20046;-76
2022/07/01 00:46:24;;;;;;;4.80;2.97;;;;;;;27.03;47.30;100634.88;5034011;28;20061;-76
2022/07/01 00:48:57;;;;;;;4.70;3.10;;;;;;;27.04;47.32;100632.97;5035431;28;20404;-76
2022/07/01 00:51:25;;;;;;;5.32;2.90;;;;;;;27.03;47.32;100634.88;5035355;28;20045;-76
2022/07/01 00:53:53;;;;;;;3.75;2.70;;;;;;;27.05;47.27;100657.25;5035140;28;20054;-76
2022/07/01 00:56:20;;;;;;;5.85;3.10;;;;;;;27.04;47.18;100639.25;5034839;28;20049;-76
2022/07/01 00:58:48;;;;;;;4.75;3.15;;;;;;;27.04;47.46;100647.41;5035494;28;20053;-77
2022/07/01 01:01:15;;;;;;;4.43;2.58;;;;;;;27.05;47.31;100648.25;5033615;28;20050;-77
2022/07/01 01:03:42;;;;;;;4.28;2.50;;;;;;;27.05;47.20;100657.25;5034876;28;20389;-76
2022/07/01 01:06:10;;;;;;;6.18;3.20;;;;;;;27.05;47.37;100665.38;5035233;28;20053;-77
2022/07/01 01:08:38;;;;;;;6.38;3.13;;;;;;;27.07;46.70;100665.22;5035102;28;20045;-77
2022/07/01 01:11:06;;;;;;;4.90;2.65;;;;;;;27.06;47.15;100675.25;5033700;28;20054;-77
2022/07/01 01:13:34;;;;;;;5.38;3.38;;;;;;;27.07;46.89;100679.66;5034592;28;20398;-77
2022/07/01 01:16:01;;;;;;;4.20;2.95;;;;;;;27.07;47.07;100678.81;5034661;28;20397;-77
2022/07/01 01:18:28;;;;;;;4.47;2.60;;;;;;;27.08;47.00;100675.06;5033147;28;20382;-78
2022/07/01 01:20:56;;;;;;;4.20;2.33;;;;;;;27.07;46.71;100674.22;5033275;28;20519;-78
2022/07/01 01:23:23;;;;;;;4.03;2.70;;;;;;;27.08;46.83;100680.50;5033648;28;20049;-77
2022/07/01 01:25:51;;;;;;;6.22;2.42;;;;;;;27.08;46.59;100681.31;5033970;28;20456;-78
2022/07/01 01:28:18;;;;;;;3.25;2.40;;;;;;;27.08;46.67;100686.75;5034190;28;20053;-78
2022/07/01 01:30:45;;;;;;;5.28;2.58;;;;;;;27.09;46.57;100687.59;5033209;28;20042;-78
2022/07/01 01:33:12;;;;;;;3.50;2.28;;;;;;;27.09;46.29;100680.28;5034375;28;20049;-78
2022/07/01 01:35:40;;;;;;;5.03;2.63;;;;;;;27.09;46.54;100676.72;5034374;28;20488;-78
2022/07/01 01:38:08;;;;;;;3.63;2.35;;;;;;;27.09;45.99;100674.84;5034377;28;20068;-79
2022/07/01 01:40:35;;;;;;;3.83;2.47;;;;;;;27.09;46.13;100676.72;5049952;28;20049;-78
2022/07/01 01:43:02;;;;;;;3.70;2.50;;;;;;;27.10;46.07;100678.44;5034794;28;20492;-78
2022/07/01 01:45:30;;;;;;;4.03;2.53;;;;;;;27.10;46.13;100673.00;5049353;28;20505;-78
2022/07/01 01:47:57;;;;;;;6.10;2.20;;;;;;;27.11;46.28;100678.28;5034040;28;20081;-79
2022/07/01 01:50:24;;;;;;;3.85;2.58;;;;;;;27.10;46.06;100671.16;5033787;28;20485;-78
2022/07/01 01:52:52;;;;;;;3.17;2.20;;;;;;;27.10;45.42;100671.16;5033823;28;20045;-78
2022/07/01 01:55:19;;;;;;;3.65;2.10;;;;;;;27.10;45.79;100660.28;5032300;28;20060;-78
2022/07/01 01:57:46;;;;;;;3.03;2.33;;;;;;;27.11;45.65;100656.53;5032396;28;20053;-77
2022/07/01 02:00:14;;;;;;;3.30;2.20;;;;;;;27.11;46.14;100650.25;5033590;28;20053;-77
2022/07/01 02:02:41;;;;;;;3.72;2.50;;;;;;;27.11;45.73;100653.81;5034164;28;20045;-77
2022/07/01 02:05:11;;;;;;;3.17;2.20;;;;;;;27.12;45.94;100660.09;5032160;28;20045;-77
2022/07/01 02:07:39;;;;;;;3.50;2.28;;;;;;;27.10;46.02;100652.13;5033765;28;20153;-77
2022/07/01 02:10:07;;;;;;;3.22;2.20;;;;;;;27.12;46.12;100665.53;5034095;28;20048;-77
2022/07/01 02:12:35;;;;;;;2.83;2.20;;;;;;;27.12;45.41;100660.09;5033416;28;20049;-77
2022/07/01 02:15:03;;;;;;;2.88;1.95;;;;;;;27.14;45.32;100668.03;5032784;28;20045;-77
2022/07/01 02:17:31;;;;;;;3.20;2.33;;;;;;;27.13;44.78;100667.22;5033575;28;20056;-77
2022/07/01 02:19:58;;;;;;;4.47;2.60;;;;;;;27.14;45.92;100676.19;5033977;28;20052;-77
2022/07/01 02:22:25;;;;;;;3.67;2.45;;;;;;;27.13;45.37;100680.78;5033256;28;20041;-77
2022/07/01 02:24:53;;;;;;;4.18;2.10;;;;;;;27.15;45.28;100683.34;5033423;28;20377;-77
2022/07/01 02:27:20;;;;;;;3.88;2.50;;;;;;;27.13;45.76;100680.78;5033247;28;20045;-77
2022/07/01 02:29:47;;;;;;;3.97;2.22;;;;;;;27.14;45.49;100687.06;5032804;28;20052;-77
2022/07/01 02:32:15;;;;;;;3.00;2.08;;;;;;;27.14;44.79;100684.34;5033094;28;20056;-77
2022/07/01 02:34:42;;;;;;;2.88;1.95;;;;;;;27.14;44.91;100685.19;5032222;28;20061;-77
2022/07/01 02:37:09;;;;;;;3.45;2.35;;;;;;;27.14;45.09;100695.22;5033292;28;20046;-77
2022/07/01 02:39:37;;;;;;;3.00;1.90;;;;;;;27.15;45.18;100694.22;5015702;28;20488;-77
2022/07/01 02:44:50;;;;;;;4.88;2.55;;;;;;;27.14;44.81;100693.34;5031970;28;20053;-77
2022/07/01 02:47:17;;;;;;;3.70;2.30;;;;;;;27.15;45.07;100696.94;5032920;28;20046;-77
2022/07/01 02:49:44;;;;;;;3.15;2.40;;;;;;;27.14;44.91;100692.50;5033237;28;20056;-77
2022/07/01 02:52:12;;;;;;;2.40;1.90;;;;;;;27.15;44.81;100699.66;5032201;28;20489;-78
2022/07/01 02:54:39;;;;;;;2.80;2.08;;;;;;;27.15;44.30;100702.38;5032531;28;20049;-79
2022/07/01 02:57:07;;;;;;;3.35;2.10;;;;;;;27.15;44.19;100702.38;5033621;28;20049;-78
2022/07/01 02:59:35;;;;;;;3.20;2.30;;;;;;;27.15;44.20;100700.50;5032778;28;20056;-80
2022/07/01 03:02:02;;;;;;;3.72;2.60;;;;;;;27.14;44.49;100700.66;5033157;28;20397;-79
2022/07/01 03:04:30;;;;;;;3.28;2.13;;;;;;;27.16;45.04;100698.63;5033356;28;20049;-82
2022/07/01 03:06:58;;;;;;;3.72;2.25;;;;;;;27.15;44.52;100703.22;5033627;28;20060;-78
2022/07/01 03:09:26;;;;;;;3.72;2.33;;;;;;;27.14;43.51;100690.63;5033357;28;20049;-78
2022/07/01 03:11:53;;;;;;;2.75;1.90;;;;;;;27.14;42.66;100703.38;5033164;28;20065;-78
2022/07/01 03:14:21;;;;;;;3.72;2.28;;;;;;;27.08;42.07;100696.78;5033474;28;20045;-78
2022/07/01 03:16:48;;;;;;;3.42;2.10;;;;;;;27.05;42.00;100691.72;5032863;28;20481;-78
2022/07/01 03:19:16;;;;;;;4.78;2.38;;;;;;;27.03;41.50;100705.50;5032622;28;20061;-77
2022/07/01 03:21:43;;;;;;;3.53;2.15;;;;;;;27.01;41.49;100707.53;5032854;28;20042;-77
2022/07/01 03:24:11;;;;;;;2.85;1.90;;;;;;;26.98;42.13;100712.50;5032428;28;20046;-78
2022/07/01 03:26:38;;;;;;;4.88;2.40;;;;;;;26.93;41.91;100726.66;5033428;28;20377;-77
2022/07/01 03:29:05;;;;;;;6.38;2.72;;;;;;;26.87;41.67;100732.84;5032073;28;20053;-77
2022/07/01 03:31:33;;;;;;;4.93;2.45;;;;;;;26.76;41.48;100731.41;5032984;28;20048;-77
2022/07/01 03:34:01;;;;;;;4.60;2.92;;;;;;;26.69;41.64;100718.72;5031465;28;20064;-77
2022/07/01 03:36:28;;;;;;;5.32;2.65;;;;;;;26.63;41.89;100718.44;5032601;28;20049;-77
2022/07/01 03:38:55;;;;;;;5.40;2.63;;;;;;;26.65;41.49;100709.25;5033408;28;20052;-77
2022/07/01 03:41:23;;;;;;;4.07;2.53;;;;;;;26.67;41.56;100715.38;5035910;28;20048;-77
2022/07/01 03:43:50;;;;;;;3.28;2.42;;;;;;;26.68;41.58;100720.59;5036745;28;20050;-77
2022/07/01 03:46:17;;;;;;;4.57;2.35;;;;;;;26.70;41.31;100717.69;5037010;28;20049;-77
2022/07/01 03:48:44;;;;;;;7.18;2.78;;;;;;;26.70;41.70;100715.84;5036410;28;20068;-77
2022/07/01 03:51:12;;;;;;;4.78;2.80;;;;;;;26.67;40.91;100715.38;5036975;28;20045;-77
2022/07/01 03:56:25;;;;;;;5.78;2.50;;;;;;;26.61;41.21;100706.06;5036554;28;20052;-77
2022/07/01 03:58:53;;;;;;;4.00;2.28;;;;;;;26.61;40.98;100709.63;5035935;28;20481;-77
2022/07/01 04:01:20;;;;;;;6.80;2.85;;;;;;;26.61;41.17;100712.34;5036236;28;20041;-78
2022/07/01 04:03:48;;;;;;;4.30;2.47;;;;;;;26.62;41.17;100708.63;5034398;28;20060;-78
2022/07/01 04:06:16;;;;;;;5.18;2.72;;;;;;;26.63;41.26;100707.56;5036304;28;20045;-78
2022/07/01 04:08:44;;;;;;;6.60;3.25;;;;;;;26.63;41.23;100699.44;5036394;28;20465;-78
2022/07/01 04:11:11;;;;;;;5.25;2.50;;;;;;;26.63;41.10;100696.72;5036309;28;20052;-78
2022/07/01 04:13:39;;;;;;;5.55;2.17;;;;;;;26.64;40.80;100700.28;5034846;28;20050;-78
2022/07/01 04:16:07;;;;;;;3.63;2.50;;;;;;;26.63;40.95;100696.72;5036099;28;20072;-78
2022/07/01 04:18:35;;;;;;;6.65;2.30;;;;;;;26.64;40.67;100700.28;5035931;28;20057;-78
2022/07/01 04:23:48;;;;;;;5.65;2.70;;;;;;;26.62;40.93;100695.03;5036433;28;20052;-77
2022/07/01 04:26:16;;;;;;;5.25;2.45;;;;;;;26.63;40.92;100699.44;5035874;28;20500;-78
2022/07/01 04:29:04;;;;;;;9.05;3.55;;;;;;;26.63;40.85;100695.88;5035705;28;20045;-78
2022/07/01 04:31:31;;;;;;;4.75;2.53;;;;;;;26.63;40.76;100695.88;5035814;28;20075;-78
2022/07/01 04:33:59;;;;;;;5.20;2.28;;;;;;;26.63;40.12;100701.31;5035775;28;20155;-78
2022/07/01 04:36:26;;;;;;;4.72;2.70;;;;;;;26.62;39.52;100705.91;5035756;28;20393;-78
2022/07/01 04:38:54;;;;;;;5.80;2.70;;;;;;;26.63;39.38;100698.59;5035287;28;20045;-77
2022/07/01 04:44:07;;;;;;;5.28;2.65;;;;;;;26.62;39.80;100707.78;5035967;28;20049;-76
2022/07/01 04:46:35;;;;;;;6.22;2.20;;;;;;;26.53;39.60;100698.00;5035128;28;20493;-76
2022/07/01 04:49:03;;;;;;;6.22;2.53;;;;;;;26.43;39.58;100692.78;5035081;28;20392;-78
2022/07/01 04:51:30;;;;;;;5.10;2.40;;;;;;;26.36;39.88;100691.81;5034540;28;20413;-78
2022/07/01 04:53:58;;;;;;;4.82;2.60;;;;;;;26.31;39.94;100696.97;5034307;28;20050;-77
2022/07/01 04:56:26;;;;;;;7.80;2.40;;;;;;;26.28;39.87;100684.56;5035031;28;20046;-78
2022/07/01 04:58:55;;;;;;;4.57;2.50;;;;;;;26.28;40.04;100689.16;5035584;28;20413;-77
2022/07/01 05:01:23;;;;;;;4.38;2.50;;;;;;;26.30;40.21;100693.41;5033920;28;20060;-77
2022/07/01 05:03:50;;;;;;;4.55;2.25;;;;;;;26.32;40.33;100685.06;5035136;28;20049;-76
2022/07/01 05:06:18;;;;;;;4.28;2.78;;;;;;;26.36;40.49;100689.09;5033847;28;20054;-76
2022/07/01 05:08:45;;;;;;;5.20;2.53;;;;;;;26.37;40.70;100683.50;5034938;28;20401;-77
2022/07/01 05:11:12;;;;;;;5.05;2.38;;;;;;;26.37;41.17;100682.63;5034892;28;20048;-77
2022/07/01 05:13:40;;;;;;;6.32;2.88;;;;;;;26.35;42.11;100684.72;5035084;28;20045;-77
2022/07/01 05:16:08;;;;;;;5.53;2.70;;;;;;;26.27;42.49;100682.06;5034683;28;20050;-77
2022/07/01 05:24:08;;;;;;;3.88;2.60;;;;;;;26.17;42.50;100693.16;5034583;28;20054;-77
2022/07/01 05:26:36;;;;;;;4.78;2.60;;;;;;;26.16;42.95;100693.31;5033155;28;20060;-77
2022/07/01 05:29:04;;;;;;;5.22;2.42;;;;;;;26.13;43.09;100691.84;5034575;28;20049;-77
2022/07/01 05:31:31;;;;;;;8.52;3.05;;;;;;;26.11;43.55;100693.88;5034153;28;20082;-76
2022/07/01 05:33:59;;;;;;;5.97;2.60;;;;;;;26.11;43.21;100694.72;5016869;28;20046;-76
2022/07/01 05:36:31;;;;;;;3.20;2.10;;;;;;;26.12;42.67;100699.09;5034726;28;20049;-77
2022/07/01 05:38:58;;;;;;;7.40;2.15;;;;;;;26.14;42.40;100683.50;5032845;28;20052;-78
2022/07/01 05:41:26;;;;;;;3.25;2.08;;;;;;;26.17;42.12;100692.28;5034507;28;20053;-77
2022/07/01 05:43:53;;;;;;;5.85;2.25;;;;;;;26.19;41.74;100692.97;5033912;28;20038;-77
2022/07/01 05:46:20;;;;;;;3.78;1.90;;;;;;;26.20;41.95;100692.78;5032699;28;20042;-77
2022/07/01 05:48:48;;;;;;;3.58;2.13;;;;;;;26.23;42.17;100686.16;5034109;28;20049;-77
2022/07/01 05:51:15;;;;;;;3.58;2.40;;;;;;;26.27;41.67;100684.78;5033729;28;20469;-77
2022/07/01 05:53:43;;;;;;;5.93;2.03;;;;;;;26.29;41.45;100685.41;5033033;28;20052;-78
2022/07/01 05:56:10;;;;;;;4.28;2.25;;;;;;;26.31;41.48;100677.97;5049007;28;20453;-77
2022/07/01 05:58:38;;;;;;;5.82;2.80;;;;;;;26.33;41.16;100675.88;5034189;28;20045;-77
2022/07/01 06:01:05;;;;;;;3.15;1.95;;;;;;;26.33;40.97;100676.75;5049762;28;20045;-83
2022/07/01 06:03:36;;;;;;;6.55;2.50;;;;;;;26.34;41.11;100674.88;5033701;28;20052;-77
2022/07/01 06:06:04;;;;;;;5.13;2.22;;;;;;;26.35;41.40;100673.84;5034179;28;20384;-78
2022/07/01 06:08:33;;;;;;;3.70;2.05;;;;;;;26.37;41.35;100666.34;5033634;28;20053;-77
2022/07/01 06:11:01;;;;;;;3.60;2.25;;;;;;;26.39;41.65;100670.59;5033767;28;20049;-77
2022/07/01 06:13:29;;;;;;;4.57;2.30;;;;;;;26.39;41.61;100667.88;5033542;28;20060;-77
2022/07/01 06:15:59;;;;;;;3.67;2.08;;;;;;;26.40;41.34;100660.56;5034183;28;20049;-77
2022/07/01 06:18:27;;;;;;;6.13;2.67;;;;;;;26.42;41.63;100652.25;5032684;28;20050;-77
2022/07/01 06:20:54;;;;;;;3.67;2.35;;;;;;;26.41;42.69;100643.25;5033853;28;20053;-80
2022/07/01 06:23:22;;;;;;;3.97;2.45;;;;;;;26.43;42.55;100648.50;5034930;28;20137;-80
2022/07/01 06:25:49;;;;;;;5.05;2.30;;;;;;;26.44;43.47;100642.06;5032495;28;20056;-78
2022/07/01 06:28:17;;;;;;;4.47;2.20;;;;;;;26.44;43.73;100640.19;5033597;28;20177;-77
2022/07/01 06:30:45;;;;;;;5.13;1.98;;;;;;;26.46;43.29;100649.03;5033647;28;20049;-77
2022/07/01 06:33:13;;;;;;;2.95;2.10;;;;;;;26.46;43.81;100651.75;5033670;28;20046;-76
2022/07/01 06:35:41;;;;;;;5.68;2.35;;;;;;;26.47;43.62;100634.41;5033711;28;20502;-76
2022/07/01 06:38:08;;;;;;;7.07;3.00;;;;;;;26.48;43.36;100633.38;5033137;28;20072;-77
2022/07/01 06:40:35;;;;;;;6.97;2.20;;;;;;;26.48;43.23;100636.09;5033199;28;20048;-76
2022/07/01 06:43:03;;;;;;;4.05;2.45;;;;;;;26.48;43.26;100638.81;5033500;28;20056;-77
2022/07/01 06:45:31;;;;;;;5.85;2.30;;;;;;;26.50;43.47;100638.66;5033941;28;20401;-77
2022/07/01 06:47:58;;;;;;;5.50;2.25;;;;;;;26.50;44.04;100639.50;5048746;28;20053;-77
2022/07/01 06:50:25;;;;;;;3.95;2.33;;;;;;;26.48;44.55;100649.69;5034023;28;20054;-77
2022/07/01 06:52:53;;;;;;;10.85;6.18;;;;;;;26.49;44.36;100650.50;5032946;28;20049;-76
2022/07/01 06:55:20;;;;;;;6.60;4.10;;;;;;;26.46;43.34;100650.91;5035849;28;20052;-76
2022/07/01 06:57:47;;;;;;;7.07;3.65;;;;;;;26.42;43.10;100650.38;5034026;28;20096;-76
2022/07/01 07:00:15;;;;;;;8.52;3.30;;;;;;;26.40;43.00;100644.28;5034904;28;20049;-76
2022/07/01 07:02:42;;;;;;;6.28;3.25;;;;;;;26.39;43.24;100637.19;5048439;28;20042;-76
2022/07/01 07:05:10;;;;;;;6.10;3.63;;;;;;;26.41;43.24;100639.69;5033656;28;20060;-76
2022/07/01 07:07:38;;;;;;;9.52;4.00;;;;;;;26.42;43.14;100642.25;5033054;28;20457;-76
2022/07/01 07:10:06;;;;;;;5.60;2.92;;;;;;;26.44;43.48;100639.34;5032572;28;20060;-75
2022/07/01 07:12:33;;;;;;;6.72;3.72;;;;;;;26.45;43.26;100636.47;5032689;28;20046;-75
2022/07/01 07:15:00;;;;;;;5.75;2.95;;;;;;;26.46;43.11;100623.75;5033921;28;20397;-75
2022/07/01 07:17:28;;;;;;;6.85;3.13;;;;;;;26.47;43.45;100630.88;5036913;28;20481;-75
2022/07/01 07:19:55;;;;;;;6.32;2.75;;;;;;;26.48;43.64;100637.97;5054321;28;20054;-75
2022/07/01 07:22:23;;;;;;;4.78;2.72;;;;;;;26.49;43.82;100653.22;5057144;28;20045;-75
2022/07/01 07:24:50;;;;;;;5.25;2.80;;;;;;;26.50;43.75;100644.91;5055322;28;20049;-75
2022/07/01 07:27:18;;;;;;;5.63;2.60;;;;;;;26.51;43.26;100646.59;5056771;28;20049;-75
2022/07/01 07:29:45;;;;;;;4.28;2.47;;;;;;;26.54;43.46;100648.13;5056339;28;20041;-75
2022/07/01 07:32:12;;;;;;;4.28;2.33;;;;;;;26.54;42.64;100640.81;5055025;28;20053;-75
2022/07/01 07:34:40;;;;;;;4.07;2.50;;;;;;;26.55;41.78;100639.78;5056209;28;20404;-75
2022/07/01 07:37:08;;;;;;;5.10;2.25;;;;;;;26.55;41.44;100642.50;5056266;28;20040;-75
2022/07/01 07:39:35;;;;;;;4.82;2.38;;;;;;;26.57;41.83;100650.44;5056400;28;20049;-77
2022/07/01 07:42:04;;;;;;;3.75;2.00;;;;;;;26.58;41.10;100650.28;5058114;28;20480;-77
2022/07/01 07:44:32;;;;;;;4.15;2.50;;;;;;;26.60;39.63;100660.94;5058864;28;20522;-76
2022/07/01 07:46:59;;;;;;;4.78;2.30;;;;;;;26.58;39.65;100663.84;5058100;28;20048;-76
2022/07/01 07:49:27;;;;;;;4.10;2.38;;;;;;;26.60;40.79;100672.63;5057219;28;20056;-75
2022/07/01 07:51:54;;;;;;;5.40;2.30;;;;;;;26.62;40.97;100675.19;5057610;28;20045;-76
2022/07/01 07:54:22;;;;;;;4.95;2.30;;;;;;;26.62;40.80;100681.47;5057006;28;20045;-76
2022/07/01 07:56:49;;;;;;;4.47;2.58;;;;;;;26.61;40.50;100679.75;5056489;28;20052;-76
2022/07/01 07:59:17;;;;;;;4.85;2.28;;;;;;;26.62;39.83;100664.31;5056457;28;20060;-76
2022/07/01 08:01:44;;;;;;;6.10;2.40;;;;;;;26.63;39.39;100672.28;5055701;28;20045;-76
2022/07/01 08:04:12;;;;;;;4.70;2.72;;;;;;;26.62;38.31;100676.03;5057066;28;20045;-75
2022/07/01 08:06:39;;;;;;;6.28;2.67;;;;;;;26.63;38.49;100683.13;5056053;28;20101;-76
2022/07/01 08:09:07;;;;;;;5.03;2.05;;;;;;;26.64;39.68;100689.41;5057030;28;20514;-75
2022/07/01 08:11:34;;;;;;;6.47;2.67;;;;;;;26.65;39.33;100690.25;5057060;28;20507;-76
2022/07/01 08:14:01;;;;;;;5.57;2.53;;;;;;;26.65;39.96;100676.66;5055016;28;20507;-76
2022/07/01 08:16:29;;;;;;;5.18;2.30;;;;;;;26.65;40.70;100679.38;5057405;28;20056;-76
2022/07/01 08:18:57;;;;;;;4.13;2.30;;;;;;;26.66;40.38;100683.78;5056044;28;20040;-76
2022/07/01 08:21:25;;;;;;;5.10;2.72;;;;;;;26.66;40.25;100681.06;5057330;28;20055;-75
2022/07/01 08:23:52;;;;;;;4.90;2.03;;;;;;;26.67;40.93;100680.91;5056545;28;20045;-75
2022/07/01 08:26:19;;;;;;;3.58;2.47;;;;;;;26.68;40.72;100681.75;5038168;28;20056;-76
2022/07/01 08:28:47;;;;;;;6.53;2.67;;;;;;;26.68;41.16;100688.00;5056562;28;20060;-76
2022/07/01 08:31:14;;;;;;;9.80;3.13;;;;;;;26.69;40.84;100684.25;5056356;28;20049;-75
2022/07/01 08:33:42;;;;;;;3.85;2.58;;;;;;;26.71;41.06;100678.66;5054977;28;20049;-76
2022/07/01 08:36:13;;;;;;;5.07;3.00;;;;;;;26.71;41.51;100678.66;5056448;28;20075;-76
2022/07/01 08:38:41;;;;;;;6.35;2.90;;;;;;;26.72;41.61;100681.19;5055569;28;20053;-76
2022/07/01 08:41:09;;;;;;;7.88;2.83;;;;;;;26.75;41.05;100682.69;5057290;28;20055;-76
2022/07/01 08:43:38;;;;;;;4.30;2.17;;;;;;;26.78;40.00;100679.59;5057017;28;20045;-76
2022/07/01 08:46:07;;;;;;;4.32;2.03;;;;;;;26.80;38.77;100686.53;5056342;28;20044;-76
2022/07/01 08:48:34;;;;;;;6.00;2.28;;;;;;;26.81;38.03;100685.50;5057484;28;20049;-76
2022/07/01 08:51:03;;;;;;;8.35;2.58;;;;;;;26.82;37.21;100702.66;5055665;28;20061;-76
2022/07/01 08:53:31;;;;;;;4.57;2.22;;;;;;;26.84;36.70;100697.88;5054201;28;20053;-76
2022/07/01 08:58:47;;;;;;;3.05;1.92;;;;;;;26.88;37.06;100701.91;5056301;28;20049;-76
2022/07/01 09:01:17;;;;;;;5.75;2.35;;;;;;;26.87;37.78;100701.06;5056925;28;20056;-76
2022/07/01 09:03:48;;;;;;;7.43;1.98;;;;;;;26.87;36.99;100695.66;5055664;28;20115;-76
2022/07/01 09:06:18;;;;;;;5.15;2.28;;;;;;;26.88;36.66;100696.47;5056519;28;20069;-76
2022/07/01 09:08:46;;;;;;;4.00;2.35;;;;;;;26.88;37.18;100696.47;5055169;28;20049;-76
2022/07/01 09:11:25;;;;;;;6.05;2.10;;;;;;;26.88;36.84;100707.34;5054988;28;20056;-77
2022/07/01 09:14:07;;;;;;;8.82;2.00;;;;;;;26.89;37.73;100714.47;5054563;28;20041;-76
2022/07/01 09:16:52;;;;;;;4.78;2.08;;;;;;;26.89;37.99;100725.34;5056320;28;20478;-76
2022/07/01 09:19:21;;;;;;;5.90;1.80;;;;;;;26.89;37.43;100725.34;5055442;28;20041;-76
2022/07/01 09:21:56;;;;;;;3.22;1.98;;;;;;;26.91;36.95;100727.88;5055991;28;20408;-76
2022/07/01 09:24:27;;;;;;;6.88;2.17;;;;;;;26.91;37.20;100728.72;5056086;28;20072;-76
2022/07/01 09:27:09;;;;;;;4.25;1.95;;;;;;;26.93;37.26;100725.81;5056713;28;20056;-75
2022/07/01 09:29:39;;;;;;;6.10;2.30;;;;;;;26.95;37.92;100730.03;5054572;28;20396;-76
2022/07/01 09:32:10;;;;;;;4.07;2.22;;;;;;;26.97;38.38;100729.84;5054590;28;20048;-76
2022/07/01 09:34:46;;;;;;;3.67;2.50;;;;;;;27.00;38.45;100732.19;5054434;28;20377;-76
2022/07/01 09:37:16;;;;;;;4.75;1.92;;;;;;;27.00;38.53;100738.47;5055521;28;20048;-76
2022/07/01 09:39:44;;;;;;;4.10;2.13;;;;;;;26.99;38.57;100742.22;5054968;28;20056;-75
2022/07/01 09:42:12;;;;;;;3.45;2.10;;;;;;;27.00;39.24;100741.19;5055557;28;20063;-76
2022/07/01 09:45:06;;;;;;;4.32;2.50;;;;;;;26.99;39.07;100736.78;5056207;28;20044;-76
2022/07/01 09:47:35;;;;;;;3.20;2.10;;;;;;;27.00;39.34;100740.34;5055617;28;20349;-77
2022/07/01 09:50:04;;;;;;;5.93;2.28;;;;;;;27.01;39.17;100742.88;5054506;28;20052;-76
2022/07/01 09:52:32;;;;;;;5.13;2.25;;;;;;;27.01;38.91;100740.16;5054267;28;20381;-77
2022/07/01 09:55:05;;;;;;;7.35;2.80;;;;;;;27.02;39.40;100730.13;5055762;28;20372;-77
2022/07/01 09:57:33;;;;;;;7.28;2.63;;;;;;;27.04;39.66;100725.38;5055787;28;20044;-77
2022/07/01 10:00:00;;;;;;;4.07;2.60;;;;;;;27.06;39.62;100723.28;5053887;28;20056;-77
2022/07/01 10:02:33;;;;;;;5.30;2.30;;;;;;;27.07;40.11;100722.28;5061544;28;20056;-76
2022/07/01 10:05:15;;;;;;;4.85;2.30;;;;;;;27.07;40.00;100725.00;5054742;28;20396;-76
2022/07/01 10:08:16;;;;;;;5.13;2.38;;;;;;;27.09;39.14;100728.38;5053750;28;20488;-75
2022/07/01 10:11:21;;;;;;;4.03;2.50;;;;;;;27.09;38.35;100721.03;5053505;28;20044;-75
2022/07/01 10:13:49;;;;;;;4.15;2.45;;;;;;;27.09;39.54;100723.75;5053012;28;20049;-76
2022/07/01 10:16:20;;;;;;;5.95;2.05;;;;;;;27.08;39.59;100723.97;5052938;28;20049;-76
2022/07/01 10:18:47;;;;;;;5.97;2.80;;;;;;;27.09;39.43;100722.94;5053180;28;20057;-75
2022/07/01 10:21:29;;;;;;;5.38;2.35;;;;;;;27.08;39.72;100723.97;5054337;28;20053;-76
2022/07/01 10:24:13;;;;;;;6.35;2.20;;;;;;;27.08;39.58;100723.97;5054822;28;20048;-76
2022/07/01 10:26:42;;;;;;;4.47;2.10;;;;;;;27.07;39.77;100716.84;5055206;28;20037;-76
2022/07/01 10:29:29;;;;;;;3.90;2.17;;;;;;;27.08;39.74;100715.81;5054585;28;20053;-76
2022/07/01 10:32:22;;;;;;;3.42;1.90;;;;;;;27.07;38.96;100725.84;5054361;28;20044;-76
2022/07/01 10:35:10;;;;;;;3.08;2.10;;;;;;;27.07;38.49;100712.25;5054215;28;20381;-76
2022/07/01 10:37:59;;;;;;;6.07;2.22;;;;;;;27.09;37.93;100712.91;5054382;28;20045;-77
2022/07/01 10:40:48;;;;;;;5.35;2.08;;;;;;;27.11;38.36;100716.31;5054777;28;20056;-77
2022/07/01 10:43:17;;;;;;;5.93;2.40;;;;;;;27.11;39.15;100713.59;5054105;28;20044;-77
2022/07/01 10:45:57;;;;;;;3.58;2.45;;;;;;;27.11;38.64;100708.16;5054354;28;20040;-77
2022/07/01 10:48:25;;;;;;;3.78;2.35;;;;;;;27.10;38.68;100703.78;5054645;28;20045;-77
2022/07/01 10:50:53;;;;;;;3.00;2.40;;;;;;;27.13;38.01;100705.25;5052922;28;20439;-78
2022/07/01 10:53:20;;;;;;;6.35;2.58;;;;;;;27.13;38.55;100705.25;5053470;28;20052;-77
2022/07/01 10:55:51;;;;;;;4.53;2.55;;;;;;;27.13;37.49;100707.13;5052647;28;20167;-80
2022/07/01 10:58:38;;;;;;;3.90;2.20;;;;;;;27.14;38.25;100706.94;5054640;28;20053;-79
2022/07/01 11:01:05;;;;;;;3.67;2.40;;;;;;;27.14;38.00;100704.22;5053334;28;20053;-76
2022/07/01 11:03:39;;;;;;;4.32;2.28;;;;;;;27.14;37.83;100697.94;5054642;28;20056;-76
2022/07/01 11:06:07;;;;;;;3.05;2.45;;;;;;;27.15;37.96;100702.38;5053549;28;20044;-77
2022/07/01 11:08:35;;;;;;;6.65;2.67;;;;;;;27.13;37.63;100697.09;5053324;28;20045;-77
2022/07/01 11:11:04;;;;;;;3.92;2.60;;;;;;;27.15;36.78;100691.50;5053850;28;20071;-77
2022/07/01 11:13:34;;;;;;;3.65;2.05;;;;;;;27.16;37.47;100695.91;5054910;28;20052;-77
2022/07/01 11:16:02;;;;;;;3.70;2.03;;;;;;;27.17;37.20;100695.69;5052879;28;20053;-78
2022/07/01 11:18:30;;;;;;;5.43;2.40;;;;;;;27.17;36.26;100694.84;5054221;28;20044;-78
2022/07/01 11:21:08;;;;;;;4.35;2.50;;;;;;;27.18;36.74;100696.53;5037008;28;20055;-78
2022/07/01 11:23:36;;;;;;;6.38;2.03;;;;;;;27.18;37.10;100694.66;5053522;28;20045;-78
2022/07/01 11:26:23;;;;;;;3.92;2.40;;;;;;;27.17;36.37;100692.97;5053267;28;20060;-78
2022/07/01 11:28:50;;;;;;;4.13;2.40;;;;;;;27.18;35.25;100697.38;5051952;28;20045;-78
2022/07/01 11:31:29;;;;;;;3.92;2.63;;;;;;;27.20;34.95;100697.22;5051695;28;20053;-77
2022/07/01 11:33:56;;;;;;;7.55;2.42;;;;;;;27.22;36.02;100703.28;5052874;28;20487;-77
2022/07/01 11:39:24;;;;;;;3.97;2.03;;;;;;;27.21;36.87;100696.16;5053902;28;20056;-78
2022/07/01 11:41:57;;;;;;;3.95;2.05;;;;;;;27.20;36.99;100700.75;5053609;28;20056;-78
2022/07/01 11:44:36;;;;;;;4.78;2.30;;;;;;;27.21;37.18;100697.00;5052448;28;20385;-78
2022/07/01 11:47:06;;;;;;;4.30;2.40;;;;;;;27.20;37.51;100694.50;5052885;28;20069;-78
2022/07/01 11:49:42;;;;;;;3.85;2.30;;;;;;;27.20;38.19;100697.22;5053671;28;20049;-78
2022/07/01 11:52:10;;;;;;;4.85;2.28;;;;;;;27.19;37.88;100695.53;5053767;28;20045;-78
2022/07/01 11:54:44;;;;;;;3.58;2.30;;;;;;;27.19;37.89;100692.81;5053874;28;20071;-78
2022/07/01 11:57:15;;;;;;;3.42;2.40;;;;;;;27.19;38.34;100690.94;5054381;28;20104;-78